createdAt,value
2022-10-21T00:03:35.650Z,100216.94
2022-10-21T00:08:57.593Z,100222.75
2022-10-21T00:14:22.660Z,100213.03
2022-10-21T00:19:44.457Z,100214.84
2022-10-21T00:25:07.459Z,100193.28
2022-10-21T00:30:32.197Z,100176.56
2022-10-21T00:35:56.162Z,100166.19
2022-10-21T00:41:25.970Z,100170.84
2022-10-21T00:46:57.647Z,100160.00
2022-10-21T00:52:24.034Z,100149.94
2022-10-21T00:57:50.383Z,100142.38
2022-10-21T01:03:13.897Z,100121.53
2022-10-21T01:08:36.953Z,100116.56
2022-10-21T01:14:37.731Z,100130.38
2022-10-21T01:20:35.864Z,100106.66
2022-10-21T01:26:29.890Z,100106.50
2022-10-21T01:31:57.525Z,100089.75
2022-10-21T01:37:26.892Z,100091.78
2022-10-21T01:42:52.734Z,100090.34
2022-10-21T01:48:20.492Z,100094.75
2022-10-21T01:53:47.097Z,100082.59
2022-10-21T01:59:15.135Z,100068.19
2022-10-21T02:04:42.822Z,100056.03
2022-10-21T02:10:07.597Z,100055.03
2022-10-21T02:15:32.034Z,100055.50
2022-10-21T02:20:58.385Z,100055.19
2022-10-21T02:26:20.953Z,100050.59
2022-10-21T02:31:54.071Z,100063.59
2022-10-21T02:37:24.730Z,100058.66
2022-10-21T02:42:51.874Z,100043.38
2022-10-21T02:48:13.625Z,100035.03
2022-10-21T02:53:37.204Z,100030.75
2022-10-21T02:58:58.955Z,100025.88
2022-10-21T03:04:21.223Z,100015.34
2022-10-21T03:09:44.384Z,100009.63
2022-10-21T03:15:06.755Z,100001.28
2022-10-21T03:20:29.561Z,99993.72
2022-10-21T03:25:55.148Z,99992.78
2022-10-21T03:31:16.426Z,99985.09
2022-10-21T03:36:38.234Z,99981.63
2022-10-21T03:42:01.225Z,99998.91
2022-10-21T03:47:22.957Z,99996.81
2022-10-21T03:52:45.093Z,99993.97
2022-10-21T03:58:08.026Z,99989.22
2022-10-21T04:03:30.643Z,99971.44
2022-10-21T04:08:53.250Z,99968.19
2022-10-21T04:14:16.932Z,99963.72
2022-10-21T04:19:40.095Z,99951.09
2022-10-21T04:25:04.646Z,99944.38
2022-10-21T04:30:28.386Z,99934.03
2022-10-21T04:35:49.819Z,99926.59
2022-10-21T04:41:12.099Z,99931.38
2022-10-21T04:46:35.346Z,99934.16
2022-10-21T04:51:57.076Z,99927.75
2022-10-21T04:57:20.565Z,99920.88
2022-10-21T05:02:43.397Z,99923.16
2022-10-21T05:08:09.181Z,99910.03
2022-10-21T05:13:34.328Z,99901.44
2022-10-21T05:18:59.114Z,99911.31
2022-10-21T05:24:20.990Z,99913.47
2022-10-21T05:29:42.952Z,99920.69
2022-10-21T05:35:07.662Z,99916.25
2022-10-21T05:40:31.328Z,99916.25
2022-10-21T05:45:53.472Z,99925.28
2022-10-21T05:51:18.638Z,99926.28
2022-10-21T05:56:43.726Z,99916.88
2022-10-21T06:02:06.620Z,99907.34
2022-10-21T06:07:33.199Z,99908.00
2022-10-21T06:12:55.556Z,99910.81
2022-10-21T06:18:20.682Z,99919.50
2022-10-21T06:23:45.451Z,99915.59
2022-10-21T06:29:07.391Z,99911.97
2022-10-21T06:34:29.484Z,99915.59
2022-10-21T06:39:54.774Z,99906.53
2022-10-21T06:45:22.170Z,99902.78
2022-10-21T06:50:44.481Z,99911.19
2022-10-21T06:56:11.991Z,99904.41
2022-10-21T07:01:48.455Z,99910.84
2022-10-21T07:07:17.747Z,99902.78
2022-10-21T07:12:43.644Z,99912.97
2022-10-21T07:18:05.887Z,99910.81
2022-10-21T07:23:29.435Z,99933.69
2022-10-21T07:28:52.738Z,99921.31
2022-10-21T07:34:14.716Z,99913.72
2022-10-21T07:39:36.272Z,99922.00
2022-10-21T07:45:01.844Z,99924.88
2022-10-21T07:50:24.134Z,99934.78
2022-10-21T07:55:46.842Z,99928.31
2022-10-21T08:01:12.259Z,99908.88
2022-10-21T08:06:34.334Z,99912.66
2022-10-21T08:11:57.180Z,99904.59
2022-10-21T08:17:20.358Z,99888.13
2022-10-21T08:22:42.178Z,99884.78
2022-10-21T08:28:04.610Z,99887.06
2022-10-21T08:33:29.002Z,99881.22
2022-10-21T08:38:51.309Z,99879.22
2022-10-21T08:44:31.603Z,99860.63
2022-10-21T08:50:03.654Z,99850.59
2022-10-21T08:55:33.574Z,99848.09
2022-10-21T09:01:00.454Z,99850.16
2022-10-21T09:06:26.839Z,99844.84
2022-10-21T09:11:59.219Z,99834.09
2022-10-21T09:17:38.165Z,99846.00
2022-10-21T09:23:13.239Z,99848.84
2022-10-21T09:28:35.428Z,99855.47
2022-10-21T09:34:04.486Z,99863.66
2022-10-21T09:39:35.352Z,99865.38
2022-10-21T09:44:58.136Z,99857.72
2022-10-21T09:50:20.649Z,99855.16
2022-10-21T09:55:49.723Z,99848.34
2022-10-21T10:01:19.261Z,99848.22
2022-10-21T10:06:45.902Z,99855.53
2022-10-21T10:12:20.034Z,99850.97
2022-10-21T10:17:42.884Z,99858.06
2022-10-21T10:23:20.179Z,99842.16
2022-10-21T10:28:52.083Z,99847.75
2022-10-21T10:34:21.197Z,99848.19
2022-10-21T10:39:44.994Z,99840.16
2022-10-21T10:45:19.650Z,99845.78
2022-10-21T10:50:43.882Z,99835.66
2022-10-21T10:56:18.176Z,99824.44
2022-10-21T11:01:50.647Z,99822.31
2022-10-21T11:07:19.295Z,99823.31
2022-10-21T11:12:44.170Z,99820.91
2022-10-21T11:18:24.958Z,99811.97
2022-10-21T11:24:20.450Z,99817.06
2022-10-21T11:29:53.455Z,99804.88
2022-10-21T11:35:30.844Z,99792.50
2022-10-21T11:40:58.319Z,99789.34
2022-10-21T11:46:30.365Z,99773.38
2022-10-21T11:52:02.599Z,99785.34
2022-10-21T11:57:28.824Z,99796.34
2022-10-21T12:03:13.170Z,99794.03
2022-10-21T12:08:41.398Z,99808.53
2022-10-21T12:14:30.853Z,99799.09
2022-10-21T12:20:00.234Z,99802.25
2022-10-21T12:25:35.715Z,99813.38
2022-10-21T12:31:06.828Z,99808.91
2022-10-21T12:36:46.553Z,99804.72
2022-10-21T12:42:14.582Z,99803.66
2022-10-21T12:47:46.643Z,99798.88
2022-10-21T12:53:26.340Z,99786.75
2022-10-21T12:59:02.190Z,99787.59
2022-10-21T13:04:48.691Z,99792.16
2022-10-21T13:10:24.176Z,99782.72
2022-10-21T13:15:52.662Z,99797.94
2022-10-21T13:21:25.056Z,99802.41
2022-10-21T13:26:50.803Z,99788.59
2022-10-21T13:32:23.593Z,99780.88
2022-10-21T13:37:58.591Z,99789.97
2022-10-21T13:43:30.020Z,99781.78
2022-10-21T13:48:53.691Z,99772.28
2022-10-21T13:54:17.549Z,99775.31
2022-10-21T13:59:40.819Z,99782.59
2022-10-21T14:05:04.616Z,99788.25
2022-10-21T14:10:27.033Z,99783.38
2022-10-21T14:15:52.715Z,99782.22
2022-10-21T14:21:56.875Z,99776.09
2022-10-21T14:27:23.788Z,99779.94
2022-10-21T14:32:48.368Z,99768.13
2022-10-21T14:38:31.302Z,99770.56
2022-10-21T14:43:57.080Z,99764.63
2022-10-21T14:49:25.142Z,99755.16
2022-10-21T14:54:55.214Z,99761.25
2022-10-21T15:00:27.623Z,99761.56
2022-10-21T15:05:52.489Z,99764.53
2022-10-21T15:11:27.347Z,99765.28
2022-10-21T15:16:53.462Z,99767.66
2022-10-21T15:22:28.784Z,99764.72
2022-10-21T15:27:55.240Z,99769.97
2022-10-21T15:33:17.253Z,99765.22
2022-10-21T15:38:46.681Z,99773.50
2022-10-21T15:44:21.022Z,99778.16
2022-10-21T15:49:46.206Z,99775.41
2022-10-21T15:55:10.294Z,99780.31
2022-10-21T16:00:40.122Z,99783.97
2022-10-21T16:06:03.677Z,99794.06
2022-10-21T16:11:40.477Z,99789.13
2022-10-21T16:17:05.154Z,99787.03
2022-10-21T16:22:32.699Z,99779.75
2022-10-21T16:27:56.701Z,99790.13
2022-10-21T16:33:25.102Z,99806.63
2022-10-21T16:38:48.840Z,99811.06
2022-10-21T16:44:10.571Z,99813.59
2022-10-21T16:49:37.977Z,99796.19
2022-10-21T17:00:48.965Z,99794.44
2022-10-21T17:06:15.616Z,99798.16
2022-10-21T17:11:39.795Z,99812.34
2022-10-21T17:17:07.367Z,99822.09
2022-10-21T17:22:33.014Z,99826.03
2022-10-21T17:27:58.568Z,99825.75
2022-10-21T17:33:20.762Z,99821.31
2022-10-21T17:38:45.885Z,99830.91
2022-10-21T17:44:09.922Z,99847.72
2022-10-21T17:49:31.788Z,99839.66
2022-10-21T17:54:55.823Z,99845.84
2022-10-21T18:00:17.676Z,99843.22
2022-10-21T18:05:42.451Z,99848.00
2022-10-21T18:11:11.174Z,99855.28
2022-10-21T18:16:33.258Z,99833.03
2022-10-21T18:21:56.136Z,99835.38
2022-10-21T18:27:21.488Z,99826.81
2022-10-21T18:32:45.072Z,99817.13
2022-10-21T18:38:24.099Z,99813.22
2022-10-21T18:43:50.286Z,99816.72
2022-10-21T18:49:15.098Z,99822.16
2022-10-21T18:54:37.113Z,99826.63
2022-10-21T19:00:08.012Z,99825.94
2022-10-21T19:05:30.252Z,99830.44
2022-10-21T19:10:51.706Z,99840.88
2022-10-21T19:16:14.735Z,99843.66
2022-10-21T19:21:36.910Z,99850.09
2022-10-21T19:27:01.880Z,99839.25
2022-10-21T19:32:25.107Z,99847.50
2022-10-21T19:37:48.530Z,99845.56
2022-10-21T19:43:11.360Z,99843.59
2022-10-21T19:48:36.237Z,99846.06
2022-10-21T19:53:58.840Z,99855.63
2022-10-21T19:59:22.575Z,99862.22
2022-10-21T20:04:45.617Z,99871.44
2022-10-21T20:10:08.978Z,99873.88
2022-10-21T20:15:31.148Z,99881.97
2022-10-21T20:20:54.570Z,99881.63
2022-10-21T20:26:16.363Z,99878.16
2022-10-21T20:31:38.567Z,99876.69
2022-10-21T20:37:01.791Z,99883.75
2022-10-21T20:42:23.350Z,99885.94
2022-10-21T20:47:45.801Z,99878.84
2022-10-21T20:53:10.658Z,99879.66
2022-10-21T20:58:41.716Z,99873.25
2022-10-21T21:04:06.090Z,99869.00
2022-10-21T21:10:01.149Z,99869.66
2022-10-21T21:15:14.282Z,99870.84
2022-10-21T21:20:36.664Z,99883.00
2022-10-21T21:26:08.087Z,99884.16
2022-10-21T21:31:31.846Z,99895.69
2022-10-21T21:36:55.155Z,99899.63
2022-10-21T21:42:18.968Z,99905.38
2022-10-21T21:47:44.423Z,99900.59
2022-10-21T21:53:06.822Z,99895.19
2022-10-21T21:58:30.219Z,99891.41
2022-10-21T22:03:52.406Z,99883.66
2022-10-21T22:09:14.797Z,99863.63
2022-10-21T22:14:38.059Z,99869.53
2022-10-21T22:20:00.089Z,99877.09
2022-10-21T22:25:22.012Z,99888.94
2022-10-21T22:30:46.201Z,99901.28
2022-10-21T22:36:09.046Z,99886.50
2022-10-21T22:41:30.820Z,99889.44
2022-10-21T22:46:54.242Z,99863.59
2022-10-21T22:52:16.784Z,99844.16
2022-10-21T22:57:40.401Z,99828.19
2022-10-21T23:03:07.373Z,99804.66
2022-10-21T23:08:31.938Z,99825.59
2022-10-21T23:14:02.714Z,99851.41
2022-10-21T23:19:31.012Z,99856.03
2022-10-21T23:24:55.752Z,99860.00
2022-10-21T23:30:18.559Z,99870.19
2022-10-21T23:35:42.471Z,99890.91
2022-10-21T23:41:04.748Z,99858.63
2022-10-21T23:51:51.474Z,99862.25
2022-10-21T23:57:13.901Z,99871.81
